createdAt,value
2024-04-30T00:01:37.234Z,16.50
2024-04-30T00:04:04.208Z,18.70
2024-04-30T00:06:31.140Z,16.50
2024-04-30T00:08:57.919Z,16.50
2024-04-30T00:11:24.753Z,16.50
2024-04-30T00:13:51.751Z,16.40
2024-04-30T00:16:18.717Z,18.70
2024-04-30T00:18:45.551Z,17.80
2024-04-30T00:21:12.386Z,16.40
2024-04-30T00:23:39.153Z,17.40
2024-04-30T00:26:10.251Z,16.30
2024-04-30T00:28:37.204Z,16.30
2024-04-30T00:31:04.741Z,16.20
2024-04-30T00:33:31.590Z,18.60
2024-04-30T00:35:58.384Z,16.20
2024-04-30T00:38:25.151Z,16.40
2024-04-30T00:40:51.977Z,18.80
2024-04-30T00:43:18.779Z,16.10
2024-04-30T00:45:45.593Z,16.10
2024-04-30T00:48:12.458Z,16.00
2024-04-30T00:50:40.690Z,16.10
2024-04-30T00:53:09.149Z,16.10
2024-04-30T00:55:36.037Z,16.10
2024-04-30T00:58:02.894Z,16.00
2024-04-30T01:00:29.843Z,16.30
2024-04-30T01:02:56.712Z,15.90
2024-04-30T01:05:23.490Z,15.90
2024-04-30T01:07:50.326Z,15.90
2024-04-30T01:10:18.013Z,15.80
2024-04-30T01:12:45.080Z,14.20
2024-04-30T01:15:12.128Z,15.90
2024-04-30T01:17:38.946Z,17.20
2024-04-30T01:20:06.171Z,17.60
2024-04-30T01:22:33.118Z,15.80
2024-04-30T01:24:59.969Z,17.60
2024-04-30T01:27:26.842Z,15.70
2024-04-30T01:29:53.587Z,15.60
2024-04-30T01:32:20.467Z,15.60
2024-04-30T01:34:47.298Z,15.60
2024-04-30T01:37:14.149Z,18.50
2024-04-30T01:39:41.055Z,15.50
2024-04-30T01:42:07.862Z,16.30
2024-04-30T01:44:34.640Z,15.50
2024-04-30T01:47:01.444Z,15.40
2024-04-30T01:49:28.301Z,15.30
2024-04-30T01:51:55.129Z,15.30
2024-04-30T01:54:21.870Z,15.40
2024-04-30T01:56:48.601Z,16.70
2024-04-30T01:59:15.415Z,15.30
2024-04-30T02:01:42.220Z,15.20
2024-04-30T02:04:09.048Z,15.20
2024-04-30T02:06:35.853Z,18.90
2024-04-30T02:09:02.664Z,15.10
2024-04-30T02:11:29.605Z,15.10
2024-04-30T02:13:56.414Z,17.30
2024-04-30T02:16:23.213Z,15.10
2024-04-30T02:18:50.320Z,17.30
2024-04-30T02:21:17.134Z,15.10
2024-04-30T02:23:43.904Z,15.00
2024-04-30T02:26:10.738Z,14.90
2024-04-30T02:28:37.578Z,14.90
2024-04-30T02:31:22.978Z,14.90
2024-04-30T02:34:08.612Z,14.90
2024-04-30T02:36:35.411Z,17.50
2024-04-30T02:39:02.367Z,14.80
2024-04-30T02:41:29.161Z,14.80
2024-04-30T02:43:55.921Z,13.10
2024-04-30T02:46:22.717Z,14.80
2024-04-30T02:48:49.575Z,14.80
2024-04-30T02:51:19.812Z,14.80
2024-04-30T02:53:46.589Z,14.70
2024-04-30T02:56:13.521Z,14.70
2024-04-30T02:58:40.366Z,17.70
2024-04-30T03:01:07.361Z,14.60
2024-04-30T03:03:34.235Z,14.50
2024-04-30T03:06:01.510Z,14.90
2024-04-30T03:08:28.313Z,15.40
2024-04-30T03:10:55.626Z,14.60
2024-04-30T03:13:22.554Z,18.00
2024-04-30T03:15:49.355Z,14.40
2024-04-30T03:18:16.166Z,14.60
2024-04-30T03:20:43.057Z,14.40
2024-04-30T03:23:13.141Z,16.90
2024-04-30T03:25:39.946Z,14.40
2024-04-30T03:28:07.530Z,17.40
2024-04-30T03:30:34.392Z,10.60
2024-04-30T03:33:01.647Z,15.90
2024-04-30T03:35:28.561Z,14.10
2024-04-30T03:37:55.301Z,14.10
2024-04-30T03:40:22.234Z,14.10
2024-04-30T03:42:52.194Z,11.40
2024-04-30T03:45:20.452Z,14.00
2024-04-30T03:47:47.313Z,15.50
2024-04-30T03:50:14.136Z,14.10
2024-04-30T03:52:41.095Z,14.00
2024-04-30T03:55:08.005Z,14.00
2024-04-30T03:57:34.871Z,13.90
2024-04-30T04:00:01.758Z,14.00
2024-04-30T04:02:28.610Z,14.00
2024-04-30T04:04:55.491Z,15.40
2024-04-30T04:07:22.292Z,14.00
2024-04-30T04:09:49.122Z,14.00
2024-04-30T04:12:34.402Z,13.90
2024-04-30T04:15:01.216Z,17.30
2024-04-30T04:17:28.198Z,14.00
2024-04-30T04:19:55.090Z,13.90
2024-04-30T04:22:21.889Z,15.10
2024-04-30T04:24:48.711Z,14.00
2024-04-30T04:27:15.495Z,13.90
2024-04-30T04:29:42.303Z,15.10
2024-04-30T04:32:09.305Z,13.90
2024-04-30T04:34:38.119Z,13.90
2024-04-30T04:37:04.965Z,16.30
2024-04-30T04:39:31.756Z,13.90
2024-04-30T04:41:58.576Z,14.00
2024-04-30T04:44:25.381Z,13.90
2024-04-30T04:46:52.150Z,13.90
2024-04-30T04:49:18.957Z,16.30
2024-04-30T04:51:45.744Z,17.30
2024-04-30T04:54:12.523Z,14.20
2024-04-30T04:56:39.372Z,14.20
2024-04-30T04:59:06.178Z,14.20
2024-04-30T05:01:33.043Z,14.30
2024-04-30T05:04:00.166Z,11.70
2024-04-30T05:06:27.024Z,14.40
2024-04-30T05:08:53.794Z,14.50
2024-04-30T05:11:20.616Z,14.50
2024-04-30T05:13:47.406Z,14.50
2024-04-30T05:16:14.216Z,14.50
2024-04-30T05:18:40.985Z,14.60
2024-04-30T05:21:07.875Z,16.70
2024-04-30T05:23:34.735Z,14.50
2024-04-30T05:26:01.549Z,14.50
2024-04-30T05:28:28.489Z,14.50
2024-04-30T05:30:55.306Z,14.60
2024-04-30T05:33:22.193Z,14.70
2024-04-30T05:35:49.072Z,14.80
2024-04-30T05:38:15.915Z,15.90
2024-04-30T05:40:42.771Z,17.80
2024-04-30T05:43:09.968Z,15.20
2024-04-30T05:45:36.766Z,15.20
2024-04-30T05:48:03.751Z,15.40
2024-04-30T05:50:30.576Z,15.50
2024-04-30T05:52:57.329Z,15.60
2024-04-30T05:55:24.375Z,15.80
2024-04-30T05:57:51.170Z,17.80
2024-04-30T06:00:18.100Z,17.40
2024-04-30T06:02:45.375Z,17.60
2024-04-30T06:05:12.374Z,19.40
2024-04-30T06:07:39.429Z,16.10
2024-04-30T06:10:06.572Z,16.20
2024-04-30T06:12:33.382Z,16.20
2024-04-30T06:15:00.162Z,16.30
2024-04-30T06:17:27.389Z,16.40
2024-04-30T06:19:54.169Z,16.50
2024-04-30T06:22:21.178Z,19.00
2024-04-30T06:24:48.064Z,16.60
2024-04-30T06:27:14.863Z,16.70
2024-04-30T06:29:41.670Z,18.70
2024-04-30T06:32:08.565Z,17.00
2024-04-30T06:34:35.396Z,17.00
2024-04-30T06:37:02.310Z,18.70
2024-04-30T06:39:29.136Z,17.50
2024-04-30T06:41:55.905Z,17.50
2024-04-30T06:44:22.728Z,17.60
2024-04-30T06:46:49.609Z,19.50
2024-04-30T06:49:16.349Z,19.40
2024-04-30T06:51:43.103Z,20.00
2024-04-30T06:54:09.946Z,18.00
2024-04-30T06:56:37.420Z,18.90
2024-04-30T06:59:04.228Z,18.20
2024-04-30T07:01:31.033Z,18.30
2024-04-30T07:03:57.782Z,19.60
2024-04-30T07:06:24.545Z,20.00
2024-04-30T07:08:51.402Z,18.50
2024-04-30T07:11:18.246Z,18.50
2024-04-30T07:13:45.081Z,19.40
2024-04-30T07:16:11.931Z,18.50
2024-04-30T07:18:41.176Z,21.30
2024-04-30T07:21:08.032Z,18.50
2024-04-30T07:23:34.859Z,20.70
2024-04-30T07:26:01.767Z,18.60
2024-04-30T07:28:28.587Z,18.80
2024-04-30T07:30:55.432Z,20.40
2024-04-30T07:33:22.323Z,19.10
2024-04-30T07:35:49.104Z,19.20
2024-04-30T07:38:15.982Z,20.30
2024-04-30T07:40:42.780Z,19.40
2024-04-30T07:43:11.833Z,16.40
2024-04-30T07:45:38.628Z,20.20
2024-04-30T07:48:05.807Z,19.60
2024-04-30T07:50:32.754Z,19.70
2024-04-30T07:52:59.569Z,21.20
2024-04-30T07:55:26.342Z,19.60
2024-04-30T07:57:53.189Z,19.60
2024-04-30T08:00:20.213Z,21.20
2024-04-30T08:02:47.031Z,19.70
2024-04-30T08:05:13.926Z,20.70
2024-04-30T08:07:40.921Z,22.80
2024-04-30T08:10:07.911Z,19.90
2024-04-30T08:12:34.740Z,19.90
2024-04-30T08:15:04.322Z,20.00
2024-04-30T08:17:31.398Z,20.10
2024-04-30T08:19:58.264Z,20.20
2024-04-30T08:22:26.416Z,20.20
2024-04-30T08:24:53.423Z,21.60
2024-04-30T08:27:22.328Z,20.40
2024-04-30T08:29:49.795Z,20.50
2024-04-30T08:32:17.086Z,20.60
2024-04-30T08:34:43.910Z,20.70
2024-04-30T08:37:10.779Z,20.80
2024-04-30T08:39:37.614Z,21.00
2024-04-30T08:42:04.594Z,21.10
2024-04-30T08:44:32.697Z,21.20
2024-04-30T08:47:00.164Z,21.30
2024-04-30T08:49:38.414Z,22.40
2024-04-30T08:52:13.557Z,21.40
2024-04-30T08:54:41.344Z,21.80
2024-04-30T08:57:08.192Z,21.50
2024-04-30T08:59:35.068Z,21.60
2024-04-30T09:02:02.964Z,21.60
2024-04-30T09:04:30.511Z,21.70
2024-04-30T09:06:57.437Z,21.80
2024-04-30T09:09:25.112Z,21.90
2024-04-30T09:11:52.051Z,24.00
2024-04-30T09:14:19.062Z,22.10
2024-04-30T09:16:47.183Z,22.20
2024-04-30T09:19:27.208Z,25.40
2024-04-30T09:22:07.093Z,22.50
2024-04-30T09:24:34.086Z,22.60
2024-04-30T09:27:01.065Z,25.70
2024-04-30T09:29:39.344Z,22.80
2024-04-30T09:32:07.605Z,22.90
2024-04-30T09:34:43.887Z,23.00
2024-04-30T09:37:19.793Z,19.70
2024-04-30T09:39:50.669Z,23.10
2024-04-30T09:42:17.491Z,23.30
2024-04-30T09:44:44.437Z,24.60
2024-04-30T09:47:13.825Z,23.30
2024-04-30T09:49:41.887Z,23.50
2024-04-30T09:52:09.318Z,23.60
2024-04-30T09:54:37.873Z,23.70
2024-04-30T09:57:05.038Z,23.80
2024-04-30T09:59:32.808Z,23.80
2024-04-30T10:02:02.047Z,25.40
2024-04-30T10:04:30.060Z,23.90
2024-04-30T10:06:57.673Z,24.10
2024-04-30T10:09:24.490Z,24.20
2024-04-30T10:11:51.309Z,24.40
2024-04-30T10:14:28.142Z,24.50
2024-04-30T10:17:05.750Z,24.40
2024-04-30T10:19:42.316Z,24.50
2024-04-30T10:22:13.477Z,24.70
2024-04-30T10:24:40.416Z,24.80
2024-04-30T10:27:18.219Z,25.00
2024-04-30T10:29:45.001Z,26.50
2024-04-30T10:32:11.838Z,28.60
2024-04-30T10:34:40.364Z,25.40
2024-04-30T10:37:11.285Z,25.40
2024-04-30T10:39:42.322Z,25.40
2024-04-30T10:42:09.242Z,25.50
2024-04-30T10:44:42.522Z,25.60
2024-04-30T10:47:09.478Z,25.70
2024-04-30T10:49:36.493Z,25.80
2024-04-30T10:52:03.414Z,25.70
2024-04-30T10:54:30.503Z,25.80
2024-04-30T10:56:57.446Z,25.70
2024-04-30T10:59:27.932Z,26.00
2024-04-30T11:02:00.998Z,26.40
2024-04-30T11:04:31.572Z,26.60
2024-04-30T11:06:58.584Z,27.50
2024-04-30T11:09:28.231Z,26.30
2024-04-30T11:12:02.094Z,26.10
2024-04-30T11:14:29.163Z,26.00
2024-04-30T11:16:57.000Z,26.20
2024-04-30T11:19:24.162Z,26.60
2024-04-30T11:21:53.389Z,27.20
2024-04-30T11:24:20.245Z,27.90
2024-04-30T11:26:50.429Z,27.70
2024-04-30T11:29:30.665Z,27.80
2024-04-30T11:32:04.421Z,27.80
2024-04-30T11:34:31.492Z,27.80
2024-04-30T11:36:58.466Z,27.80
2024-04-30T11:39:25.285Z,27.40
2024-04-30T11:42:01.269Z,27.00
2024-04-30T11:44:39.018Z,26.90
2024-04-30T11:47:07.235Z,26.80
2024-04-30T11:49:34.624Z,27.00
2024-04-30T11:52:01.776Z,27.20
2024-04-30T11:54:28.899Z,27.30
2024-04-30T11:56:56.190Z,27.60
2024-04-30T11:59:23.268Z,27.50
2024-04-30T12:01:50.263Z,27.40
2024-04-30T12:05:07.810Z,27.40
2024-04-30T12:07:34.826Z,27.50
2024-04-30T12:10:07.368Z,28.00
2024-04-30T12:12:36.771Z,28.40
2024-04-30T12:15:04.695Z,28.30
2024-04-30T12:17:31.790Z,28.20
2024-04-30T12:19:59.105Z,28.40
2024-04-30T13:36:20.649Z,34.40
2024-04-30T13:38:47.582Z,34.10
2024-04-30T13:41:14.413Z,34.40
2024-04-30T13:43:41.514Z,35.10
2024-04-30T13:46:08.873Z,35.50
2024-04-30T13:48:36.656Z,35.30
2024-04-30T13:51:03.706Z,35.10
2024-04-30T13:53:30.608Z,32.70
2024-04-30T13:55:57.432Z,35.10
2024-04-30T13:58:24.384Z,35.40
2024-04-30T14:00:51.380Z,35.80
2024-04-30T14:03:18.347Z,36.30
2024-04-30T14:05:45.287Z,36.40
2024-04-30T14:08:12.599Z,36.30
2024-04-30T14:10:39.624Z,36.20
2024-04-30T14:13:07.240Z,35.60
2024-04-30T14:15:34.118Z,35.50
2024-04-30T14:18:01.043Z,35.40
2024-04-30T14:20:28.124Z,35.20
2024-04-30T14:22:55.126Z,35.40
2024-04-30T14:25:22.108Z,35.10
2024-04-30T14:27:49.161Z,34.40
2024-04-30T14:30:16.194Z,34.20
2024-04-30T14:32:43.093Z,34.30
2024-04-30T14:35:10.209Z,34.70
2024-04-30T14:37:37.221Z,34.20
2024-04-30T14:40:04.409Z,33.30
2024-04-30T14:44:58.796Z,32.70
2024-04-30T14:49:55.014Z,32.20
2024-04-30T14:52:22.113Z,32.00
2024-04-30T14:54:49.239Z,31.50
2024-04-30T14:59:43.329Z,30.70
2024-04-30T15:07:05.325Z,31.40
2024-04-30T15:09:35.297Z,31.80
2024-04-30T15:12:02.761Z,31.90
2024-04-30T15:14:29.727Z,31.90
2024-04-30T15:19:24.422Z,31.90
2024-04-30T15:21:51.326Z,31.60
2024-04-30T15:24:18.219Z,31.10
2024-04-30T15:26:45.239Z,30.50
2024-04-30T15:29:13.214Z,29.80
2024-04-30T15:31:40.195Z,29.40
2024-04-30T15:36:34.894Z,29.50
2024-04-30T15:39:01.843Z,29.90
2024-04-30T15:41:28.667Z,29.80
2024-04-30T15:43:55.557Z,29.70
2024-04-30T15:48:52.825Z,29.10
2024-04-30T15:53:47.318Z,28.50
2024-04-30T15:56:17.697Z,28.20
2024-04-30T15:58:46.771Z,28.20
2024-04-30T16:06:09.370Z,27.90
2024-04-30T16:11:09.792Z,28.20
2024-04-30T16:13:38.621Z,28.30
2024-04-30T16:16:12.735Z,28.20
2024-04-30T16:18:45.008Z,28.10
2024-04-30T16:21:12.175Z,28.00
2024-04-30T16:23:39.386Z,28.00
2024-04-30T16:26:06.983Z,27.80
2024-04-30T16:28:35.260Z,27.70
2024-04-30T16:31:03.924Z,27.60
2024-04-30T16:33:31.103Z,27.40
2024-04-30T16:35:58.028Z,27.10
2024-04-30T16:48:14.202Z,26.20
2024-04-30T16:53:10.186Z,26.10
2024-04-30T16:58:05.706Z,26.00
2024-04-30T17:05:28.094Z,25.80
2024-04-30T17:07:55.371Z,25.80
2024-04-30T17:10:22.188Z,25.70
2024-04-30T17:12:50.335Z,25.70
2024-04-30T17:17:44.931Z,25.40
2024-04-30T17:20:12.082Z,25.20
2024-04-30T17:25:07.238Z,25.10
2024-04-30T17:27:34.601Z,25.00
2024-04-30T17:32:29.301Z,24.80
2024-04-30T17:37:24.020Z,24.70
2024-04-30T17:42:18.452Z,24.30
2024-04-30T17:44:45.307Z,24.40
2024-04-30T17:54:34.413Z,24.00
2024-04-30T18:06:50.847Z,23.40
2024-04-30T18:09:17.832Z,23.30
2024-04-30T18:19:10.450Z,23.00
2024-04-30T18:26:44.036Z,22.70
2024-04-30T18:31:38.675Z,22.60
2024-04-30T18:34:05.763Z,22.50
2024-04-30T18:36:37.397Z,22.30
2024-04-30T18:48:55.579Z,22.00
2024-04-30T18:51:22.926Z,22.00
2024-04-30T18:53:50.274Z,21.90
2024-04-30T18:58:46.423Z,21.80
2024-04-30T19:03:42.363Z,21.60
2024-04-30T19:06:10.985Z,21.60
2024-04-30T19:11:07.196Z,21.40
2024-04-30T19:16:02.457Z,21.40
2024-04-30T19:23:28.530Z,21.20
2024-04-30T19:43:16.164Z,21.00
2024-04-30T20:05:31.849Z,20.70
2024-04-30T20:25:13.732Z,20.30
2024-04-30T20:32:39.731Z,20.20
2024-04-30T20:35:07.477Z,20.10
2024-04-30T20:59:41.536Z,19.90
2024-04-30T21:36:35.568Z,20.00
2024-04-30T21:43:57.009Z,20.00
2024-04-30T21:48:51.340Z,19.90
2024-04-30T21:51:21.923Z,19.90
2024-04-30T22:01:13.512Z,19.60
2024-04-30T22:03:40.987Z,19.70
2024-04-30T22:06:08.453Z,19.60
2024-04-30T22:13:30.311Z,19.60
2024-04-30T22:20:54.349Z,19.50
2024-04-30T22:23:21.864Z,19.60
2024-04-30T22:30:43.504Z,19.40
2024-04-30T22:45:27.160Z,19.30
2024-04-30T22:50:21.562Z,19.10
2024-04-30T23:00:11.239Z,19.10
2024-04-30T23:05:14.677Z,19.20
2024-04-30T23:10:08.855Z,19.10
2024-04-30T23:22:25.390Z,19.00
2024-04-30T23:27:21.870Z,19.00
2024-04-30T23:32:16.856Z,19.00
2024-04-30T23:42:08.819Z,18.80
